Americaborg — PHKT — position and weather

sailwx.info

Track history (hours):
 
Tides and Currents Weather Stations Pressure Air Temp Water Temp Dewpoint Dewpoint Depression Visibility Wind Speed Wind Dir Waves Ship Positions

Americaborg

Last reported at 2018-Jun-19 19:53 UTC. Time now 2018-Jun-19 23:49 UTC.
Position N 43°36' W 005°42'.

Length 142 m; draft 5.7 m.

Type: Ship. MMSI: 244693000.

Date/timePositionNaut miles runAvg speedWind from/ knotsBaromVisibWave heightAir tempDewpointWater temp
2018-Jun-19 19:53N 43°36' W 005°42'0 0.0
2018-Jun-19 19:29N 43°36' W 005°42'0 0.0
2018-Jun-19 18:47N 43°36' W 005°42'0 0.0
2018-Jun-19 18:30N 43°36' W 005°42'0 0.0
2018-Jun-19 12:29N 43°36' W 005°42'0 0.0
2018-Jun-19 11:59N 43°36' W 005°42'0 0.0
2018-Jun-19 10:23N 43°36' W 005°42'0 0.0
2018-Jun-19 06:11N 43°36' W 005°42'0 0.0
2018-Jun-19 04:00N 43°36' W 005°42'0 0.0
2018-Jun-19 03:30N 43°36' W 005°42'0 0.0
2018-Jun-19 02:53N 43°36' W 005°42'0 0.0
2018-Jun-19 02:29N 43°36' W 005°42'0 0.0
2018-Jun-19 01:24N 43°36' W 005°42'0 0.0
2018-Jun-19 00:48N 43°36' W 005°42'0 0.0
2018-Jun-18 19:53N 43°36' W 005°42'0 0.0
2018-Jun-18 18:41N 43°36' W 005°42'0 0.0
2018-Jun-18 18:24N 43°36' W 005°42'0 0.0
2018-Jun-18 17:00N 43°36' W 005°42'0 0.0
2018-Jun-18 15:41N 43°36' W 005°42'0 0.0
2018-Jun-18 10:11N 43°36' W 005°42'0 0.0
2018-Jun-18 07:41N 43°36' W 005°42'0 0.0
2018-Jun-18 07:18N 43°36' W 005°42'0 0.1
2018-Jun-18 06:59N 43°36' W 005°42'0 0.0
2018-Jun-18 01:18N 43°36' W 005°42'0 0.0
2018-Jun-17 20:18N 43°36' W 005°42'0 0.0
2018-Jun-17 07:11N 43°36' W 005°42'0 0.1
2018-Jun-17 06:59N 43°36' W 005°42'0 0.0
2018-Jun-16 11:54N 43°36' W 005°42'1 2.3
2018-Jun-16 11:23N 43°36' W 005°41'1 2.4
2018-Jun-16 10:58N 43°37' W 005°40'0 0.7
2018-Jun-16 10:26N 43°36' W 005°40'2 4.1
2018-Jun-16 09:54N 43°39' W 005°41'3 8.7
2018-Jun-16 09:30N 43°42' W 005°41'6 9.7
2018-Jun-16 08:54N 43°48' W 005°41'371 8.5
2018-Jun-14 13:02N 49°47' W 003°27'110.0
2018-Jun-14 12:58N 49°48' W 003°26'510.7
2018-Jun-14 12:30N 49°50' W 003°20'611.0
2018-Jun-14 12:00N 49°53' W 003°12'612.5
2018-Jun-14 11:30N 49°56' W 003°04'611.6
2018-Jun-14 11:01N 49°59' W 002°56'611.1
2018-Jun-14 10:30N 50°01' W 002°48'510.1
2018-Jun-14 10:00N 50°02' W 002°40'5 9.5
2018-Jun-14 09:29N 50°03' W 002°33'21 8.5
2018-Jun-14 06:58N 50°10' W 002°01'510.3
2018-Jun-14 06:29N 50°11' W 001°54'510.2
2018-Jun-14 06:00N 50°12' W 001°46'4 7.7
2018-Jun-14 05:30N 50°13' W 001°41'4 8.6
2018-Jun-14 05:00N 50°14' W 001°34'5 9.7
2018-Jun-14 04:30N 50°16' W 001°27'610.7
2018-Jun-14 03:59N 50°17' W 001°18'611.8
2018-Jun-14 03:30N 50°19' W 001°10'712.6
2018-Jun-14 02:59N 50°21' W 001°00'712.9
2018-Jun-14 02:28N 50°23' W 000°50'612.5
2018-Jun-14 02:00N 50°24' W 000°41'612.2
2018-Jun-14 01:31N 50°25' W 000°32'611.8
2018-Jun-14 01:00N 50°27' W 000°23'611.2
2018-Jun-14 00:30N 50°28' W 000°14'510.6
2018-Jun-14 00:00N 50°30' W 000°07'510.1
2018-Jun-13 23:30N 50°31' E 000°01'5 9.5
2018-Jun-13 23:00N 50°33' E 000°08'4 9.2
2018-Jun-13 22:31N 50°34' E 000°15'4 8.5
2018-Jun-13 22:01N 50°35' E 000°22'4 8.2
2018-Jun-13 21:30N 50°36' E 000°28'4 7.9
2018-Jun-13 21:01N 50°37' E 000°34'3 6.8
2018-Jun-13 20:30N 50°40' E 000°37'4 8.4
2018-Jun-13 20:00N 50°42' E 000°43'5 9.1
2018-Jun-13 19:31N 50°45' E 000°48'5 9.9
2018-Jun-13 19:00N 50°47' E 000°55'510.7
2018-Jun-13 18:31N 50°50' E 001°02'611.3
2018-Jun-13 18:01N 50°54' E 001°09'611.5
2018-Jun-13 17:30N 50°58' E 001°16'611.7
2018-Jun-13 17:00N 51°02' E 001°23'611.1
2018-Jun-13 16:30N 51°05' E 001°29'510.1
2018-Jun-13 16:00N 51°09' E 001°36'5 9.1
2018-Jun-13 15:31N 51°11' E 001°41'4 8.7
2018-Jun-13 15:01N 51°15' E 001°46'4 8.5
2018-Jun-13 14:31N 51°18' E 001°49'4 8.0
2018-Jun-13 14:00N 51°22' E 001°52'4 7.6
2018-Jun-13 13:31N 51°25' E 001°54'4 7.8
2018-Jun-13 13:01N 51°29' E 001°58'4 8.2
2018-Jun-13 12:30N 51°32' E 002°02'4 8.5
2018-Jun-13 12:01N 51°35' E 002°07'5 9.0
2018-Jun-13 11:30N 51°39' E 002°11'5 9.2
2018-Jun-13 11:01N 51°42' E 002°16'5 9.5
2018-Jun-13 10:30N 51°45' E 002°22'510.4
2018-Jun-13 09:59N 51°49' E 002°28'510.9
2018-Jun-13 09:30N 51°53' E 002°33'5510.8
2018-Jun-13 04:24N 52°37' E 003°29'3 9.0
2018-Jun-13 04:00N 52°39' E 003°33'5 8.9
2018-Jun-13 03:25N 52°43' E 003°38'14 8.3
2018-Jun-13 01:47N 52°54' E 003°53'3 8.3
2018-Jun-13 01:24N 52°56' E 003°56'345 9.7
2018-Jun-11 13:43N 58°00' E 008°43'2 7.9
2018-Jun-11 13:30N 58°02' E 008°46'4 7.9
2018-Jun-11 13:00N 58°05' E 008°51'4 8.0
2018-Jun-11 12:31N 58°08' E 008°56'4 8.1
2018-Jun-11 12:01N 58°11' E 009°01'28 9.0
2018-Jun-11 08:51N 58°32' E 009°36'3 9.2
2018-Jun-11 08:30N 58°35' E 009°38'5 9.9
2018-Jun-11 08:00N 58°40' E 009°40'510.1
2018-Jun-11 07:30N 58°45' E 009°42'510.1
2018-Jun-11 07:00N 58°50' E 009°45'510.1
2018-Jun-11 06:30N 58°54' E 009°48'510.2
2018-Jun-11 05:59N 58°60' E 009°47'4 9.4
2018-Jun-11 05:30N 59°03' E 009°41'4 7.3
2018-Jun-11 04:58N 59°06' E 009°37'1 1.3
2018-Jun-11 04:30N 59°07' E 009°37'0 0.1
2018-Jun-11 03:58N 59°07' E 009°37'0 0.1
2018-Jun-11 03:28N 59°07' E 009°37'0 0.0
2018-Jun-11 02:58N 59°07' E 009°37'0 0.1
2018-Jun-11 02:28N 59°07' E 009°37'0 0.0
2018-Jun-11 01:58N 59°07' E 009°37'0 0.0
2018-Jun-11 01:28N 59°07' E 009°37'0 0.0
2018-Jun-11 00:58N 59°07' E 009°37'0 0.1
2018-Jun-11 00:28N 59°07' E 009°37'0 0.0
2018-Jun-10 23:58N 59°07' E 009°37'0 0.0
2018-Jun-10 23:28N 59°07' E 009°37'0 0.0
2018-Jun-10 22:58N 59°07' E 009°37'0 0.0
2018-Jun-10 22:28N 59°07' E 009°37'0 0.0
2018-Jun-10 21:58N 59°07' E 009°37'0 0.0
2018-Jun-10 21:28N 59°07' E 009°37'0 0.1
2018-Jun-10 20:58N 59°07' E 009°37'0 0.1
2018-Jun-10 20:28N 59°07' E 009°37'0 0.0
2018-Jun-10 19:58N 59°07' E 009°37'0 0.1
2018-Jun-10 19:28N 59°07' E 009°37'0 0.1
2018-Jun-10 18:58N 59°07' E 009°37'0 0.1
2018-Jun-10 18:28N 59°07' E 009°37'0 0.0
2018-Jun-10 17:58N 59°07' E 009°37'0 0.0
2018-Jun-10 17:28N 59°07' E 009°37'0 0.0
2018-Jun-10 16:58N 59°07' E 009°37'0 0.0
2018-Jun-10 16:28N 59°07' E 009°37'0 0.0
2018-Jun-10 15:58N 59°07' E 009°37'0 0.0
2018-Jun-10 15:28N 59°07' E 009°37'0 0.1
2018-Jun-10 14:58N 59°07' E 009°37'0 0.0
2018-Jun-10 13:58N 59°07' E 009°37'0 0.0
2018-Jun-10 13:28N 59°07' E 009°37'0 0.0
2018-Jun-10 12:58N 59°07' E 009°37'0 0.0
2018-Jun-10 12:28N 59°07' E 009°37'0 0.0
2018-Jun-10 11:58N 59°07' E 009°37'0 0.1
2018-Jun-10 11:28N 59°07' E 009°37'0 0.0
2018-Jun-10 10:58N 59°07' E 009°37'0 0.0
2018-Jun-10 10:29N 59°07' E 009°37'0 0.0
2018-Jun-10 09:59N 59°07' E 009°37'0 0.0
2018-Jun-10 09:29N 59°07' E 009°37'0 0.0
2018-Jun-10 08:58N 59°07' E 009°37'0 0.0
2018-Jun-10 08:28N 59°07' E 009°37'0 0.0
2018-Jun-10 07:58N 59°07' E 009°37'0 0.0
2018-Jun-10 07:28N 59°07' E 009°37'0 0.0
2018-Jun-10 06:58N 59°07' E 009°37'0 0.0
2018-Jun-10 06:28N 59°07' E 009°37'0 0.0
2018-Jun-10 05:58N 59°07' E 009°37'0 0.0
2018-Jun-10 05:28N 59°07' E 009°37'0 0.1
2018-Jun-10 04:58N 59°07' E 009°37'0 0.0
2018-Jun-10 04:28N 59°07' E 009°37'0 0.0
2018-Jun-10 03:58N 59°07' E 009°37'0 0.0
2018-Jun-10 03:28N 59°07' E 009°37'0 0.0
2018-Jun-10 02:58N 59°07' E 009°37'0 0.0
2018-Jun-10 02:28N 59°07' E 009°37'0 0.0
2018-Jun-10 01:58N 59°07' E 009°37'0 0.0
2018-Jun-10 01:28N 59°07' E 009°37'0 0.1
2018-Jun-10 00:58N 59°07' E 009°37'0 0.0
2018-Jun-10 00:28N 59°07' E 009°37'0 0.0
2018-Jun-09 23:58N 59°07' E 009°37'0 0.0
2018-Jun-09 23:28N 59°07' E 009°37'0 0.0
2018-Jun-09 22:58N 59°07' E 009°37'0 0.0
2018-Jun-09 22:28N 59°07' E 009°37'0 0.0
2018-Jun-09 21:58N 59°07' E 009°37'0 0.0
2018-Jun-09 21:28N 59°07' E 009°37'0 0.0
2018-Jun-09 20:58N 59°07' E 009°37'0 0.0
2018-Jun-09 20:28N 59°07' E 009°37'0 0.0
2018-Jun-09 19:58N 59°07' E 009°37'  
Track history (hours):
 
Tides and Currents Weather Stations Pressure Air Temp Water Temp Dewpoint Dewpoint Depression Visibility Wind Speed Wind Dir Waves Ship Positions

Americaborg

Last reported at 2018-Jun-19 19:53 UTC. Time now 2018-Jun-19 23:49 UTC.
Position N 43°36' W 005°42'.

Length 142 m; draft 5.7 m.

Type: Ship. MMSI: 244693000.

Date/timePositionNaut miles runAvg speedWind from/ knotsBaromVisibWave heightAir tempDewpointWater temp
2018-Jun-19 19:53N 43°36' W 005°42'0 0.0
2018-Jun-19 19:29N 43°36' W 005°42'0 0.0
2018-Jun-19 18:47N 43°36' W 005°42'0 0.0
2018-Jun-19 18:30N 43°36' W 005°42'0 0.0
2018-Jun-19 12:29N 43°36' W 005°42'0 0.0
2018-Jun-19 11:59N 43°36' W 005°42'0 0.0
2018-Jun-19 10:23N 43°36' W 005°42'0 0.0
2018-Jun-19 06:11N 43°36' W 005°42'0 0.0
2018-Jun-19 04:00N 43°36' W 005°42'0 0.0
2018-Jun-19 03:30N 43°36' W 005°42'0 0.0
2018-Jun-19 02:53N 43°36' W 005°42'0 0.0
2018-Jun-19 02:29N 43°36' W 005°42'0 0.0
2018-Jun-19 01:24N 43°36' W 005°42'0 0.0
2018-Jun-19 00:48N 43°36' W 005°42'0 0.0
2018-Jun-18 19:53N 43°36' W 005°42'0 0.0
2018-Jun-18 18:41N 43°36' W 005°42'0 0.0
2018-Jun-18 18:24N 43°36' W 005°42'0 0.0
2018-Jun-18 17:00N 43°36' W 005°42'0 0.0
2018-Jun-18 15:41N 43°36' W 005°42'0 0.0
2018-Jun-18 10:11N 43°36' W 005°42'0 0.0
2018-Jun-18 07:41N 43°36' W 005°42'0 0.0
2018-Jun-18 07:18N 43°36' W 005°42'0 0.1
2018-Jun-18 06:59N 43°36' W 005°42'0 0.0
2018-Jun-18 01:18N 43°36' W 005°42'0 0.0
2018-Jun-17 20:18N 43°36' W 005°42'0 0.0
2018-Jun-17 07:11N 43°36' W 005°42'0 0.1
2018-Jun-17 06:59N 43°36' W 005°42'0 0.0
2018-Jun-16 11:54N 43°36' W 005°42'1 2.3
2018-Jun-16 11:23N 43°36' W 005°41'1 2.4
2018-Jun-16 10:58N 43°37' W 005°40'0 0.7
2018-Jun-16 10:26N 43°36' W 005°40'2 4.1
2018-Jun-16 09:54N 43°39' W 005°41'3 8.7
2018-Jun-16 09:30N 43°42' W 005°41'6 9.7
2018-Jun-16 08:54N 43°48' W 005°41'371 8.5
2018-Jun-14 13:02N 49°47' W 003°27'110.0
2018-Jun-14 12:58N 49°48' W 003°26'510.7
2018-Jun-14 12:30N 49°50' W 003°20'611.0
2018-Jun-14 12:00N 49°53' W 003°12'612.5
2018-Jun-14 11:30N 49°56' W 003°04'611.6
2018-Jun-14 11:01N 49°59' W 002°56'611.1
2018-Jun-14 10:30N 50°01' W 002°48'510.1
2018-Jun-14 10:00N 50°02' W 002°40'5 9.5
2018-Jun-14 09:29N 50°03' W 002°33'21 8.5
2018-Jun-14 06:58N 50°10' W 002°01'510.3
2018-Jun-14 06:29N 50°11' W 001°54'510.2
2018-Jun-14 06:00N 50°12' W 001°46'4 7.7
2018-Jun-14 05:30N 50°13' W 001°41'4 8.6
2018-Jun-14 05:00N 50°14' W 001°34'5 9.7
2018-Jun-14 04:30N 50°16' W 001°27'610.7
2018-Jun-14 03:59N 50°17' W 001°18'611.8
2018-Jun-14 03:30N 50°19' W 001°10'712.6
2018-Jun-14 02:59N 50°21' W 001°00'712.9
2018-Jun-14 02:28N 50°23' W 000°50'612.5
2018-Jun-14 02:00N 50°24' W 000°41'612.2
2018-Jun-14 01:31N 50°25' W 000°32'611.8
2018-Jun-14 01:00N 50°27' W 000°23'611.2
2018-Jun-14 00:30N 50°28' W 000°14'510.6
2018-Jun-14 00:00N 50°30' W 000°07'510.1
2018-Jun-13 23:30N 50°31' E 000°01'5 9.5
2018-Jun-13 23:00N 50°33' E 000°08'4 9.2
2018-Jun-13 22:31N 50°34' E 000°15'4 8.5
2018-Jun-13 22:01N 50°35' E 000°22'4 8.2
2018-Jun-13 21:30N 50°36' E 000°28'4 7.9
2018-Jun-13 21:01N 50°37' E 000°34'3 6.8
2018-Jun-13 20:30N 50°40' E 000°37'4 8.4
2018-Jun-13 20:00N 50°42' E 000°43'5 9.1
2018-Jun-13 19:31N 50°45' E 000°48'5 9.9
2018-Jun-13 19:00N 50°47' E 000°55'510.7
2018-Jun-13 18:31N 50°50' E 001°02'611.3
2018-Jun-13 18:01N 50°54' E 001°09'611.5
2018-Jun-13 17:30N 50°58' E 001°16'611.7
2018-Jun-13 17:00N 51°02' E 001°23'611.1
2018-Jun-13 16:30N 51°05' E 001°29'510.1
2018-Jun-13 16:00N 51°09' E 001°36'5 9.1
2018-Jun-13 15:31N 51°11' E 001°41'4 8.7
2018-Jun-13 15:01N 51°15' E 001°46'4 8.5
2018-Jun-13 14:31N 51°18' E 001°49'4 8.0
2018-Jun-13 14:00N 51°22' E 001°52'4 7.6
2018-Jun-13 13:31N 51°25' E 001°54'4 7.8
2018-Jun-13 13:01N 51°29' E 001°58'4 8.2
2018-Jun-13 12:30N 51°32' E 002°02'4 8.5
2018-Jun-13 12:01N 51°35' E 002°07'5 9.0
2018-Jun-13 11:30N 51°39' E 002°11'5 9.2
2018-Jun-13 11:01N 51°42' E 002°16'5 9.5
2018-Jun-13 10:30N 51°45' E 002°22'510.4
2018-Jun-13 09:59N 51°49' E 002°28'510.9
2018-Jun-13 09:30N 51°53' E 002°33'5510.8
2018-Jun-13 04:24N 52°37' E 003°29'3 9.0
2018-Jun-13 04:00N 52°39' E 003°33'5 8.9
2018-Jun-13 03:25N 52°43' E 003°38'14 8.3
2018-Jun-13 01:47N 52°54' E 003°53'3 8.3
2018-Jun-13 01:24N 52°56' E 003°56'345 9.7
2018-Jun-11 13:43N 58°00' E 008°43'2 7.9
2018-Jun-11 13:30N 58°02' E 008°46'4 7.9
2018-Jun-11 13:00N 58°05' E 008°51'4 8.0
2018-Jun-11 12:31N 58°08' E 008°56'4 8.1
2018-Jun-11 12:01N 58°11' E 009°01'28 9.0
2018-Jun-11 08:51N 58°32' E 009°36'3 9.2
2018-Jun-11 08:30N 58°35' E 009°38'5 9.9
2018-Jun-11 08:00N 58°40' E 009°40'510.1
2018-Jun-11 07:30N 58°45' E 009°42'510.1
2018-Jun-11 07:00N 58°50' E 009°45'510.1
2018-Jun-11 06:30N 58°54' E 009°48'510.2
2018-Jun-11 05:59N 58°60' E 009°47'4 9.4
2018-Jun-11 05:30N 59°03' E 009°41'4 7.3
2018-Jun-11 04:58N 59°06' E 009°37'1 1.3
2018-Jun-11 04:30N 59°07' E 009°37'0 0.1
2018-Jun-11 03:58N 59°07' E 009°37'0 0.1
2018-Jun-11 03:28N 59°07' E 009°37'0 0.0
2018-Jun-11 02:58N 59°07' E 009°37'0 0.1
2018-Jun-11 02:28N 59°07' E 009°37'0 0.0
2018-Jun-11 01:58N 59°07' E 009°37'0 0.0
2018-Jun-11 01:28N 59°07' E 009°37'0 0.0
2018-Jun-11 00:58N 59°07' E 009°37'0 0.1
2018-Jun-11 00:28N 59°07' E 009°37'0 0.0
2018-Jun-10 23:58N 59°07' E 009°37'0 0.0
2018-Jun-10 23:28N 59°07' E 009°37'0 0.0
2018-Jun-10 22:58N 59°07' E 009°37'0 0.0
2018-Jun-10 22:28N 59°07' E 009°37'0 0.0
2018-Jun-10 21:58N 59°07' E 009°37'0 0.0
2018-Jun-10 21:28N 59°07' E 009°37'0 0.1
2018-Jun-10 20:58N 59°07' E 009°37'0 0.1
2018-Jun-10 20:28N 59°07' E 009°37'0 0.0
2018-Jun-10 19:58N 59°07' E 009°37'0 0.1
2018-Jun-10 19:28N 59°07' E 009°37'0 0.1
2018-Jun-10 18:58N 59°07' E 009°37'0 0.1
2018-Jun-10 18:28N 59°07' E 009°37'0 0.0
2018-Jun-10 17:58N 59°07' E 009°37'0 0.0
2018-Jun-10 17:28N 59°07' E 009°37'0 0.0
2018-Jun-10 16:58N 59°07' E 009°37'0 0.0
2018-Jun-10 16:28N 59°07' E 009°37'0 0.0
2018-Jun-10 15:58N 59°07' E 009°37'0 0.0
2018-Jun-10 15:28N 59°07' E 009°37'0 0.1
2018-Jun-10 14:58N 59°07' E 009°37'0 0.0
2018-Jun-10 13:58N 59°07' E 009°37'0 0.0
2018-Jun-10 13:28N 59°07' E 009°37'0 0.0
2018-Jun-10 12:58N 59°07' E 009°37'0 0.0
2018-Jun-10 12:28N 59°07' E 009°37'0 0.0
2018-Jun-10 11:58N 59°07' E 009°37'0 0.1
2018-Jun-10 11:28N 59°07' E 009°37'0 0.0
2018-Jun-10 10:58N 59°07' E 009°37'0 0.0
2018-Jun-10 10:29N 59°07' E 009°37'0 0.0
2018-Jun-10 09:59N 59°07' E 009°37'0 0.0
2018-Jun-10 09:29N 59°07' E 009°37'0 0.0
2018-Jun-10 08:58N 59°07' E 009°37'0 0.0
2018-Jun-10 08:28N 59°07' E 009°37'0 0.0
2018-Jun-10 07:58N 59°07' E 009°37'0 0.0
2018-Jun-10 07:28N 59°07' E 009°37'0 0.0
2018-Jun-10 06:58N 59°07' E 009°37'0 0.0
2018-Jun-10 06:28N 59°07' E 009°37'0 0.0
2018-Jun-10 05:58N 59°07' E 009°37'0 0.0
2018-Jun-10 05:28N 59°07' E 009°37'0 0.1
2018-Jun-10 04:58N 59°07' E 009°37'0 0.0
2018-Jun-10 04:28N 59°07' E 009°37'0 0.0
2018-Jun-10 03:58N 59°07' E 009°37'0 0.0
2018-Jun-10 03:28N 59°07' E 009°37'0 0.0
2018-Jun-10 02:58N 59°07' E 009°37'0 0.0
2018-Jun-10 02:28N 59°07' E 009°37'0 0.0
2018-Jun-10 01:58N 59°07' E 009°37'0 0.0
2018-Jun-10 01:28N 59°07' E 009°37'0 0.1
2018-Jun-10 00:58N 59°07' E 009°37'0 0.0
2018-Jun-10 00:28N 59°07' E 009°37'0 0.0
2018-Jun-09 23:58N 59°07' E 009°37'0 0.0
2018-Jun-09 23:28N 59°07' E 009°37'0 0.0
2018-Jun-09 22:58N 59°07' E 009°37'0 0.0
2018-Jun-09 22:28N 59°07' E 009°37'0 0.0
2018-Jun-09 21:58N 59°07' E 009°37'0 0.0
2018-Jun-09 21:28N 59°07' E 009°37'0 0.0
2018-Jun-09 20:58N 59°07' E 009°37'0 0.0
2018-Jun-09 20:28N 59°07' E 009°37'0 0.0
2018-Jun-09 19:58N 59°07' E 009°37'  

Dump ship's entire track history